<?xml version="1.0" encoding="UTF-8" standalone="no" ?>
<gpx xmlns="http://www.topografix.com/GPX/1/1" xmlns:xsi="http://www.w3.org/2001/XMLSchema-instance" xsi:schemaLocation="http://www.topografix.com/GPX/1/1 http://www.topografix.com/GPX/1/1/gpx.xsd" version="1.1" creator="VisuGPX - https://www.visugpx.com">
  <metadata>
    <name>Prospection chemins praticables 1</name>
  </metadata>
  <trk>
    <name><![CDATA[Prospection chemins praticables 1_18]]></name>
    <trkseg>
      <trkpt lat="47.72048" lon="5.08113">
        <ele>467.1</ele>
        <time>2021-08-25T16:03:30Z</time>
      </trkpt>
      <trkpt lat="47.72036" lon="5.08088">
        <ele>467.41</ele>
        <time>2021-08-25T16:03:47Z</time>
      </trkpt>
      <trkpt lat="47.72036" lon="5.08083">
        <ele>467.27</ele>
        <time>2021-08-25T16:04:08Z</time>
      </trkpt>
      <trkpt lat="47.72044" lon="5.0809">
        <ele>467.25</ele>
        <time>2021-08-25T16:04:54Z</time>
      </trkpt>
      <trkpt lat="47.72048" lon="5.0809">
        <ele>467.2</ele>
        <time>2021-08-25T16:04:57Z</time>
      </trkpt>
      <trkpt lat="47.72063" lon="5.08091">
        <ele>467.13</ele>
        <time>2021-08-25T16:05:13Z</time>
      </trkpt>
      <trkpt lat="47.72077" lon="5.08091">
        <ele>467.25</ele>
        <time>2021-08-25T16:05:26Z</time>
      </trkpt>
      <trkpt lat="47.72087" lon="5.08092">
        <ele>466.98</ele>
        <time>2021-08-25T16:05:35Z</time>
      </trkpt>
      <trkpt lat="47.72103" lon="5.08097">
        <ele>466.71</ele>
        <time>2021-08-25T16:05:49Z</time>
      </trkpt>
      <trkpt lat="47.72113" lon="5.081">
        <ele>466.57</ele>
        <time>2021-08-25T16:06:01Z</time>
      </trkpt>
      <trkpt lat="47.72125" lon="5.08103">
        <ele>466.02</ele>
        <time>2021-08-25T16:06:15Z</time>
      </trkpt>
      <trkpt lat="47.72138" lon="5.08105">
        <ele>465.07</ele>
        <time>2021-08-25T16:06:27Z</time>
      </trkpt>
      <trkpt lat="47.72147" lon="5.08103">
        <ele>465.01</ele>
        <time>2021-08-25T16:06:43Z</time>
      </trkpt>
      <trkpt lat="47.72153" lon="5.08102">
        <ele>464.77</ele>
        <time>2021-08-25T16:07:18Z</time>
      </trkpt>
      <trkpt lat="47.72164" lon="5.08107">
        <ele>462.94</ele>
        <time>2021-08-25T16:07:32Z</time>
      </trkpt>
      <trkpt lat="47.72176" lon="5.08109">
        <ele>461.63</ele>
        <time>2021-08-25T16:07:48Z</time>
      </trkpt>
      <trkpt lat="47.7218" lon="5.08112">
        <ele>461.04</ele>
        <time>2021-08-25T16:08:09Z</time>
      </trkpt>
      <trkpt lat="47.72193" lon="5.08113">
        <ele>459.87</ele>
        <time>2021-08-25T16:08:26Z</time>
      </trkpt>
      <trkpt lat="47.72202" lon="5.08115">
        <ele>458.85</ele>
        <time>2021-08-25T16:08:40Z</time>
      </trkpt>
      <trkpt lat="47.72213" lon="5.08114">
        <ele>457.92</ele>
        <time>2021-08-25T16:08:55Z</time>
      </trkpt>
      <trkpt lat="47.72227" lon="5.08117">
        <ele>456.86</ele>
        <time>2021-08-25T16:09:11Z</time>
      </trkpt>
      <trkpt lat="47.72235" lon="5.08117">
        <ele>456.74</ele>
        <time>2021-08-25T16:09:33Z</time>
      </trkpt>
      <trkpt lat="47.72243" lon="5.08119">
        <ele>456.7</ele>
        <time>2021-08-25T16:09:47Z</time>
      </trkpt>
      <trkpt lat="47.7225" lon="5.08121">
        <ele>456.54</ele>
        <time>2021-08-25T16:10:07Z</time>
      </trkpt>
      <trkpt lat="47.72264" lon="5.0812">
        <ele>457.06</ele>
        <time>2021-08-25T16:10:21Z</time>
      </trkpt>
      <trkpt lat="47.72273" lon="5.08121">
        <ele>457.05</ele>
        <time>2021-08-25T16:10:32Z</time>
      </trkpt>
      <trkpt lat="47.7228" lon="5.08125">
        <ele>457.29</ele>
        <time>2021-08-25T16:10:47Z</time>
      </trkpt>
      <trkpt lat="47.7229" lon="5.08127">
        <ele>457.42</ele>
        <time>2021-08-25T16:11:00Z</time>
      </trkpt>
      <trkpt lat="47.72299" lon="5.08127">
        <ele>457.41</ele>
        <time>2021-08-25T16:11:14Z</time>
      </trkpt>
      <trkpt lat="47.72307" lon="5.08127">
        <ele>457.72</ele>
        <time>2021-08-25T16:11:26Z</time>
      </trkpt>
      <trkpt lat="47.72318" lon="5.0813">
        <ele>457.97</ele>
        <time>2021-08-25T16:11:39Z</time>
      </trkpt>
      <trkpt lat="47.72319" lon="5.08133">
        <ele>457.95</ele>
        <time>2021-08-25T16:11:57Z</time>
      </trkpt>
      <trkpt lat="47.72321" lon="5.08132">
        <ele>457.93</ele>
        <time>2021-08-25T16:12:48Z</time>
      </trkpt>
      <trkpt lat="47.72318" lon="5.0813">
        <ele>457.89</ele>
        <time>2021-08-25T16:13:20Z</time>
      </trkpt>
      <trkpt lat="47.72304" lon="5.08127">
        <ele>457.64</ele>
        <time>2021-08-25T16:13:35Z</time>
      </trkpt>
      <trkpt lat="47.72299" lon="5.08125">
        <ele>457.67</ele>
        <time>2021-08-25T16:13:50Z</time>
      </trkpt>
      <trkpt lat="47.72299" lon="5.08121">
        <ele>457.29</ele>
        <time>2021-08-25T16:13:59Z</time>
      </trkpt>
      <trkpt lat="47.72295" lon="5.08106">
        <ele>456.74</ele>
        <time>2021-08-25T16:14:10Z</time>
      </trkpt>
      <trkpt lat="47.72289" lon="5.0809">
        <ele>456.06</ele>
        <time>2021-08-25T16:14:24Z</time>
      </trkpt>
      <trkpt lat="47.72285" lon="5.0807">
        <ele>455.49</ele>
        <time>2021-08-25T16:14:37Z</time>
      </trkpt>
      <trkpt lat="47.72281" lon="5.08064">
        <ele>455.45</ele>
        <time>2021-08-25T16:14:54Z</time>
      </trkpt>
      <trkpt lat="47.7228" lon="5.08053">
        <ele>455.22</ele>
        <time>2021-08-25T16:15:07Z</time>
      </trkpt>
      <trkpt lat="47.72278" lon="5.08034">
        <ele>455.55</ele>
        <time>2021-08-25T16:15:20Z</time>
      </trkpt>
      <trkpt lat="47.72277" lon="5.08017">
        <ele>455.67</ele>
        <time>2021-08-25T16:15:34Z</time>
      </trkpt>
      <trkpt lat="47.72277" lon="5.07999">
        <ele>456.11</ele>
        <time>2021-08-25T16:15:45Z</time>
      </trkpt>
      <trkpt lat="47.72273" lon="5.07984">
        <ele>456.18</ele>
        <time>2021-08-25T16:15:57Z</time>
      </trkpt>
      <trkpt lat="47.72271" lon="5.07963">
        <ele>456.2</ele>
        <time>2021-08-25T16:16:11Z</time>
      </trkpt>
      <trkpt lat="47.72267" lon="5.07945">
        <ele>455.96</ele>
        <time>2021-08-25T16:16:24Z</time>
      </trkpt>
      <trkpt lat="47.72262" lon="5.07925">
        <ele>456.19</ele>
        <time>2021-08-25T16:16:36Z</time>
      </trkpt>
      <trkpt lat="47.72256" lon="5.07909">
        <ele>456.22</ele>
        <time>2021-08-25T16:16:49Z</time>
      </trkpt>
      <trkpt lat="47.72253" lon="5.07904">
        <ele>456.25</ele>
        <time>2021-08-25T16:16:53Z</time>
      </trkpt>
      <trkpt lat="47.72244" lon="5.07905">
        <ele>457</ele>
        <time>2021-08-25T16:17:05Z</time>
      </trkpt>
      <trkpt lat="47.72245" lon="5.07905">
        <ele>456.63</ele>
        <time>2021-08-25T16:17:08Z</time>
      </trkpt>
      <trkpt lat="47.72249" lon="5.07905">
        <ele>456.46</ele>
        <time>2021-08-25T16:17:11Z</time>
      </trkpt>
      <trkpt lat="47.7225" lon="5.07904">
        <ele>456.19</ele>
        <time>2021-08-25T16:17:13Z</time>
      </trkpt>
      <trkpt lat="47.72243" lon="5.07884">
        <ele>456.25</ele>
        <time>2021-08-25T16:17:26Z</time>
      </trkpt>
      <trkpt lat="47.72235" lon="5.07864">
        <ele>456.18</ele>
        <time>2021-08-25T16:17:42Z</time>
      </trkpt>
      <trkpt lat="47.72228" lon="5.07845">
        <ele>455.67</ele>
        <time>2021-08-25T16:17:54Z</time>
      </trkpt>
      <trkpt lat="47.72221" lon="5.07829">
        <ele>455.68</ele>
        <time>2021-08-25T16:18:08Z</time>
      </trkpt>
      <trkpt lat="47.72215" lon="5.07813">
        <ele>455.08</ele>
        <time>2021-08-25T16:18:20Z</time>
      </trkpt>
      <trkpt lat="47.72214" lon="5.07813">
        <ele>455.02</ele>
        <time>2021-08-25T16:18:21Z</time>
      </trkpt>
      <trkpt lat="47.72207" lon="5.07789">
        <ele>454.52</ele>
        <time>2021-08-25T16:18:35Z</time>
      </trkpt>
      <trkpt lat="47.72203" lon="5.07775">
        <ele>453.9</ele>
        <time>2021-08-25T16:18:49Z</time>
      </trkpt>
      <trkpt lat="47.72201" lon="5.07758">
        <ele>453.59</ele>
        <time>2021-08-25T16:19:01Z</time>
      </trkpt>
      <trkpt lat="47.722" lon="5.07737">
        <ele>453.68</ele>
        <time>2021-08-25T16:19:13Z</time>
      </trkpt>
      <trkpt lat="47.72202" lon="5.07723">
        <ele>453.77</ele>
        <time>2021-08-25T16:19:25Z</time>
      </trkpt>
      <trkpt lat="47.72204" lon="5.07708">
        <ele>454.58</ele>
        <time>2021-08-25T16:19:39Z</time>
      </trkpt>
      <trkpt lat="47.72206" lon="5.07696">
        <ele>454.95</ele>
        <time>2021-08-25T16:19:55Z</time>
      </trkpt>
      <trkpt lat="47.72207" lon="5.07699">
        <ele>455.1</ele>
        <time>2021-08-25T16:20:08Z</time>
      </trkpt>
      <trkpt lat="47.72215" lon="5.07696">
        <ele>455.15</ele>
        <time>2021-08-25T16:20:23Z</time>
      </trkpt>
      <trkpt lat="47.72228" lon="5.07695">
        <ele>454.81</ele>
        <time>2021-08-25T16:20:35Z</time>
      </trkpt>
      <trkpt lat="47.72239" lon="5.07694">
        <ele>453.93</ele>
        <time>2021-08-25T16:20:48Z</time>
      </trkpt>
      <trkpt lat="47.72239" lon="5.07678">
        <ele>454.46</ele>
        <time>2021-08-25T16:21:00Z</time>
      </trkpt>
      <trkpt lat="47.72237" lon="5.07674">
        <ele>454.85</ele>
        <time>2021-08-25T16:21:14Z</time>
      </trkpt>
      <trkpt lat="47.72234" lon="5.07656">
        <ele>455.7</ele>
        <time>2021-08-25T16:21:28Z</time>
      </trkpt>
      <trkpt lat="47.72233" lon="5.0764">
        <ele>456.66</ele>
        <time>2021-08-25T16:21:42Z</time>
      </trkpt>
      <trkpt lat="47.72231" lon="5.07629">
        <ele>457.25</ele>
        <time>2021-08-25T16:21:58Z</time>
      </trkpt>
      <trkpt lat="47.72229" lon="5.07622">
        <ele>457.93</ele>
        <time>2021-08-25T16:22:15Z</time>
      </trkpt>
      <trkpt lat="47.72228" lon="5.07616">
        <ele>458.88</ele>
        <time>2021-08-25T16:22:58Z</time>
      </trkpt>
      <trkpt lat="47.72224" lon="5.07606">
        <ele>459.7</ele>
        <time>2021-08-25T16:23:14Z</time>
      </trkpt>
      <trkpt lat="47.72224" lon="5.07607">
        <ele>459.64</ele>
        <time>2021-08-25T16:23:44Z</time>
      </trkpt>
      <trkpt lat="47.72223" lon="5.07606">
        <ele>458.71</ele>
        <time>2021-08-25T16:24:30Z</time>
      </trkpt>
      <trkpt lat="47.72224" lon="5.07607">
        <ele>459.25</ele>
        <time>2021-08-25T16:24:38Z</time>
      </trkpt>
      <trkpt lat="47.72225" lon="5.07608">
        <ele>459.51</ele>
        <time>2021-08-25T16:25:25Z</time>
      </trkpt>
      <trkpt lat="47.72224" lon="5.07609">
        <ele>459.44</ele>
        <time>2021-08-25T16:26:17Z</time>
      </trkpt>
      <trkpt lat="47.72229" lon="5.0761">
        <ele>459.54</ele>
        <time>2021-08-25T16:26:50Z</time>
      </trkpt>
      <trkpt lat="47.72234" lon="5.07609">
        <ele>460.1</ele>
        <time>2021-08-25T16:27:07Z</time>
      </trkpt>
      <trkpt lat="47.72231" lon="5.07608">
        <ele>460.28</ele>
        <time>2021-08-25T16:27:11Z</time>
      </trkpt>
      <trkpt lat="47.72221" lon="5.07607">
        <ele>460.25</ele>
        <time>2021-08-25T16:27:28Z</time>
      </trkpt>
      <trkpt lat="47.72221" lon="5.07604">
        <ele>460.54</ele>
        <time>2021-08-25T16:27:51Z</time>
      </trkpt>
      <trkpt lat="47.7221" lon="5.07604">
        <ele>461.14</ele>
        <time>2021-08-25T16:28:09Z</time>
      </trkpt>
      <trkpt lat="47.72201" lon="5.07602">
        <ele>461.72</ele>
        <time>2021-08-25T16:28:20Z</time>
      </trkpt>
      <trkpt lat="47.72187" lon="5.07601">
        <ele>462.21</ele>
        <time>2021-08-25T16:28:33Z</time>
      </trkpt>
      <trkpt lat="47.72189" lon="5.07601">
        <ele>462.2</ele>
        <time>2021-08-25T16:28:51Z</time>
      </trkpt>
      <trkpt lat="47.72206" lon="5.07606">
        <ele>461.58</ele>
        <time>2021-08-25T16:29:07Z</time>
      </trkpt>
      <trkpt lat="47.72211" lon="5.07606">
        <ele>461.41</ele>
        <time>2021-08-25T16:29:11Z</time>
      </trkpt>
      <trkpt lat="47.72224" lon="5.07616">
        <ele>460.31</ele>
        <time>2021-08-25T16:29:25Z</time>
      </trkpt>
      <trkpt lat="47.72229" lon="5.07629">
        <ele>459.6</ele>
        <time>2021-08-25T16:29:33Z</time>
      </trkpt>
      <trkpt lat="47.72233" lon="5.07644">
        <ele>458.48</ele>
        <time>2021-08-25T16:29:46Z</time>
      </trkpt>
      <trkpt lat="47.72237" lon="5.0766">
        <ele>457.23</ele>
        <time>2021-08-25T16:30:01Z</time>
      </trkpt>
      <trkpt lat="47.72241" lon="5.07683">
        <ele>456.43</ele>
        <time>2021-08-25T16:30:15Z</time>
      </trkpt>
      <trkpt lat="47.72238" lon="5.07695">
        <ele>455.52</ele>
        <time>2021-08-25T16:30:36Z</time>
      </trkpt>
      <trkpt lat="47.72222" lon="5.0769">
        <ele>456.88</ele>
        <time>2021-08-25T16:30:50Z</time>
      </trkpt>
      <trkpt lat="47.72211" lon="5.07688">
        <ele>457.52</ele>
        <time>2021-08-25T16:31:02Z</time>
      </trkpt>
      <trkpt lat="47.72196" lon="5.07686">
        <ele>457.99</ele>
        <time>2021-08-25T16:31:15Z</time>
      </trkpt>
      <trkpt lat="47.72185" lon="5.07687">
        <ele>457.95</ele>
        <time>2021-08-25T16:31:25Z</time>
      </trkpt>
      <trkpt lat="47.72183" lon="5.07687">
        <ele>458.05</ele>
        <time>2021-08-25T16:31:26Z</time>
      </trkpt>
      <trkpt lat="47.7218" lon="5.07685">
        <ele>458.1</ele>
        <time>2021-08-25T16:31:30Z</time>
      </trkpt>
      <trkpt lat="47.72166" lon="5.07682">
        <ele>458.46</ele>
        <time>2021-08-25T16:31:43Z</time>
      </trkpt>
      <trkpt lat="47.72155" lon="5.07681">
        <ele>458.99</ele>
        <time>2021-08-25T16:31:53Z</time>
      </trkpt>
      <trkpt lat="47.72153" lon="5.07683">
        <ele>459.15</ele>
        <time>2021-08-25T16:32:35Z</time>
      </trkpt>
      <trkpt lat="47.72153" lon="5.07685">
        <ele>459.22</ele>
        <time>2021-08-25T16:33:47Z</time>
      </trkpt>
      <trkpt lat="47.72154" lon="5.07685">
        <ele>459.02</ele>
        <time>2021-08-25T16:33:50Z</time>
      </trkpt>
      <trkpt lat="47.72173" lon="5.07686">
        <ele>458.35</ele>
        <time>2021-08-25T16:34:04Z</time>
      </trkpt>
      <trkpt lat="47.72187" lon="5.07688">
        <ele>458.31</ele>
        <time>2021-08-25T16:34:14Z</time>
      </trkpt>
      <trkpt lat="47.722" lon="5.0769">
        <ele>458.22</ele>
        <time>2021-08-25T16:34:27Z</time>
      </trkpt>
      <trkpt lat="47.72207" lon="5.07691">
        <ele>457.98</ele>
        <time>2021-08-25T16:34:37Z</time>
      </trkpt>
      <trkpt lat="47.72208" lon="5.07701">
        <ele>457.17</ele>
        <time>2021-08-25T16:34:51Z</time>
      </trkpt>
      <trkpt lat="47.72204" lon="5.07718">
        <ele>456.69</ele>
        <time>2021-08-25T16:35:07Z</time>
      </trkpt>
      <trkpt lat="47.72201" lon="5.07735">
        <ele>456.53</ele>
        <time>2021-08-25T16:35:20Z</time>
      </trkpt>
      <trkpt lat="47.72202" lon="5.07745">
        <ele>456.35</ele>
        <time>2021-08-25T16:35:29Z</time>
      </trkpt>
      <trkpt lat="47.72202" lon="5.07759">
        <ele>456.56</ele>
        <time>2021-08-25T16:35:41Z</time>
      </trkpt>
      <trkpt lat="47.72204" lon="5.07772">
        <ele>456.81</ele>
        <time>2021-08-25T16:35:53Z</time>
      </trkpt>
      <trkpt lat="47.72205" lon="5.07783">
        <ele>456.87</ele>
        <time>2021-08-25T16:36:24Z</time>
      </trkpt>
      <trkpt lat="47.72207" lon="5.07796">
        <ele>457.23</ele>
        <time>2021-08-25T16:36:35Z</time>
      </trkpt>
      <trkpt lat="47.72212" lon="5.07814">
        <ele>457.67</ele>
        <time>2021-08-25T16:36:50Z</time>
      </trkpt>
      <trkpt lat="47.7222" lon="5.07831">
        <ele>458.21</ele>
        <time>2021-08-25T16:37:04Z</time>
      </trkpt>
      <trkpt lat="47.72227" lon="5.0785">
        <ele>458.25</ele>
        <time>2021-08-25T16:37:18Z</time>
      </trkpt>
      <trkpt lat="47.72229" lon="5.07853">
        <ele>458.45</ele>
        <time>2021-08-25T16:37:21Z</time>
      </trkpt>
      <trkpt lat="47.72237" lon="5.07873">
        <ele>458.95</ele>
        <time>2021-08-25T16:37:37Z</time>
      </trkpt>
      <trkpt lat="47.7224" lon="5.0788">
        <ele>458.95</ele>
        <time>2021-08-25T16:37:42Z</time>
      </trkpt>
      <trkpt lat="47.72244" lon="5.07891">
        <ele>459.03</ele>
        <time>2021-08-25T16:37:51Z</time>
      </trkpt>
      <trkpt lat="47.72246" lon="5.07893">
        <ele>458.99</ele>
        <time>2021-08-25T16:37:53Z</time>
      </trkpt>
      <trkpt lat="47.72254" lon="5.07909">
        <ele>459.15</ele>
        <time>2021-08-25T16:38:06Z</time>
      </trkpt>
      <trkpt lat="47.72254" lon="5.07914">
        <ele>459.16</ele>
        <time>2021-08-25T16:38:15Z</time>
      </trkpt>
      <trkpt lat="47.72246" lon="5.07908">
        <ele>459.82</ele>
        <time>2021-08-25T16:38:28Z</time>
      </trkpt>
      <trkpt lat="47.72252" lon="5.07908">
        <ele>459.41</ele>
        <time>2021-08-25T16:38:33Z</time>
      </trkpt>
      <trkpt lat="47.72263" lon="5.07912">
        <ele>458.58</ele>
        <time>2021-08-25T16:38:49Z</time>
      </trkpt>
      <trkpt lat="47.72259" lon="5.07915">
        <ele>459.18</ele>
        <time>2021-08-25T16:38:59Z</time>
      </trkpt>
      <trkpt lat="47.72263" lon="5.07931">
        <ele>459.3</ele>
        <time>2021-08-25T16:39:10Z</time>
      </trkpt>
      <trkpt lat="47.72264" lon="5.07936">
        <ele>459.25</ele>
        <time>2021-08-25T16:39:13Z</time>
      </trkpt>
      <trkpt lat="47.72269" lon="5.07951">
        <ele>459.4</ele>
        <time>2021-08-25T16:39:25Z</time>
      </trkpt>
      <trkpt lat="47.72271" lon="5.07961">
        <ele>459.4</ele>
        <time>2021-08-25T16:39:33Z</time>
      </trkpt>
      <trkpt lat="47.72275" lon="5.07977">
        <ele>459.56</ele>
        <time>2021-08-25T16:39:46Z</time>
      </trkpt>
      <trkpt lat="47.72275" lon="5.07995">
        <ele>459.7</ele>
        <time>2021-08-25T16:39:59Z</time>
      </trkpt>
      <trkpt lat="47.72277" lon="5.08013">
        <ele>459.53</ele>
        <time>2021-08-25T16:40:13Z</time>
      </trkpt>
      <trkpt lat="47.7228" lon="5.08034">
        <ele>458.95</ele>
        <time>2021-08-25T16:40:29Z</time>
      </trkpt>
      <trkpt lat="47.72282" lon="5.0805">
        <ele>459.02</ele>
        <time>2021-08-25T16:40:42Z</time>
      </trkpt>
      <trkpt lat="47.72281" lon="5.08063">
        <ele>459.03</ele>
        <time>2021-08-25T16:40:55Z</time>
      </trkpt>
      <trkpt lat="47.7228" lon="5.08069">
        <ele>459.17</ele>
        <time>2021-08-25T16:41:00Z</time>
      </trkpt>
      <trkpt lat="47.7228" lon="5.08084">
        <ele>459.78</ele>
        <time>2021-08-25T16:41:14Z</time>
      </trkpt>
      <trkpt lat="47.72277" lon="5.08097">
        <ele>460.59</ele>
        <time>2021-08-25T16:41:29Z</time>
      </trkpt>
      <trkpt lat="47.72275" lon="5.08113">
        <ele>460.25</ele>
        <time>2021-08-25T16:41:44Z</time>
      </trkpt>
      <trkpt lat="47.72276" lon="5.08115">
        <ele>460.49</ele>
        <time>2021-08-25T16:42:26Z</time>
      </trkpt>
      <trkpt lat="47.72275" lon="5.08123">
        <ele>461.38</ele>
        <time>2021-08-25T16:42:43Z</time>
      </trkpt>
      <trkpt lat="47.72279" lon="5.08138">
        <ele>461.66</ele>
        <time>2021-08-25T16:42:57Z</time>
      </trkpt>
      <trkpt lat="47.72284" lon="5.08144">
        <ele>462.34</ele>
        <time>2021-08-25T16:43:09Z</time>
      </trkpt>
      <trkpt lat="47.7228" lon="5.08156">
        <ele>462.8</ele>
        <time>2021-08-25T16:43:22Z</time>
      </trkpt>
      <trkpt lat="47.72281" lon="5.08176">
        <ele>463.64</ele>
        <time>2021-08-25T16:43:39Z</time>
      </trkpt>
      <trkpt lat="47.72279" lon="5.08193">
        <ele>464.52</ele>
        <time>2021-08-25T16:43:54Z</time>
      </trkpt>
      <trkpt lat="47.72278" lon="5.08207">
        <ele>465.58</ele>
        <time>2021-08-25T16:44:07Z</time>
      </trkpt>
      <trkpt lat="47.72277" lon="5.08224">
        <ele>466.17</ele>
        <time>2021-08-25T16:44:21Z</time>
      </trkpt>
      <trkpt lat="47.72274" lon="5.08238">
        <ele>466.8</ele>
        <time>2021-08-25T16:44:33Z</time>
      </trkpt>
      <trkpt lat="47.72274" lon="5.08254">
        <ele>467.39</ele>
        <time>2021-08-25T16:44:46Z</time>
      </trkpt>
      <trkpt lat="47.72273" lon="5.08258">
        <ele>467.63</ele>
        <time>2021-08-25T16:44:50Z</time>
      </trkpt>
      <trkpt lat="47.72274" lon="5.08277">
        <ele>468.63</ele>
        <time>2021-08-25T16:45:05Z</time>
      </trkpt>
      <trkpt lat="47.72276" lon="5.08298">
        <ele>469.62</ele>
        <time>2021-08-25T16:45:22Z</time>
      </trkpt>
      <trkpt lat="47.7227" lon="5.08313">
        <ele>470.23</ele>
        <time>2021-08-25T16:45:38Z</time>
      </trkpt>
      <trkpt lat="47.72272" lon="5.0833">
        <ele>470.75</ele>
        <time>2021-08-25T16:45:52Z</time>
      </trkpt>
      <trkpt lat="47.72269" lon="5.08343">
        <ele>471.34</ele>
        <time>2021-08-25T16:46:02Z</time>
      </trkpt>
      <trkpt lat="47.72262" lon="5.08364">
        <ele>471.77</ele>
        <time>2021-08-25T16:46:20Z</time>
      </trkpt>
      <trkpt lat="47.72262" lon="5.08365">
        <ele>471.84</ele>
        <time>2021-08-25T16:46:21Z</time>
      </trkpt>
      <trkpt lat="47.72261" lon="5.08383">
        <ele>472.23</ele>
        <time>2021-08-25T16:46:35Z</time>
      </trkpt>
      <trkpt lat="47.72258" lon="5.08395">
        <ele>472.56</ele>
        <time>2021-08-25T16:46:51Z</time>
      </trkpt>
      <trkpt lat="47.72257" lon="5.08407">
        <ele>472.51</ele>
        <time>2021-08-25T16:47:04Z</time>
      </trkpt>
      <trkpt lat="47.72256" lon="5.08414">
        <ele>472.84</ele>
        <time>2021-08-25T16:47:21Z</time>
      </trkpt>
      <trkpt lat="47.72262" lon="5.08417">
        <ele>472.98</ele>
        <time>2021-08-25T16:47:43Z</time>
      </trkpt>
      <trkpt lat="47.7226" lon="5.08417">
        <ele>472.91</ele>
        <time>2021-08-25T16:48:02Z</time>
      </trkpt>
      <trkpt lat="47.72252" lon="5.08414">
        <ele>472.62</ele>
        <time>2021-08-25T16:48:10Z</time>
      </trkpt>
      <trkpt lat="47.72249" lon="5.08413">
        <ele>472.55</ele>
        <time>2021-08-25T16:48:13Z</time>
      </trkpt>
      <trkpt lat="47.72246" lon="5.08412">
        <ele>472.58</ele>
        <time>2021-08-25T16:48:16Z</time>
      </trkpt>
      <trkpt lat="47.7224" lon="5.08408">
        <ele>472.4</ele>
        <time>2021-08-25T16:48:27Z</time>
      </trkpt>
      <trkpt lat="47.72227" lon="5.08408">
        <ele>472.08</ele>
        <time>2021-08-25T16:48:43Z</time>
      </trkpt>
      <trkpt lat="47.7222" lon="5.08407">
        <ele>471.98</ele>
        <time>2021-08-25T16:49:04Z</time>
      </trkpt>
      <trkpt lat="47.72208" lon="5.08405">
        <ele>471.68</ele>
        <time>2021-08-25T16:49:19Z</time>
      </trkpt>
      <trkpt lat="47.72209" lon="5.08416">
        <ele>471.78</ele>
        <time>2021-08-25T16:49:34Z</time>
      </trkpt>
      <trkpt lat="47.72207" lon="5.08409">
        <ele>471.57</ele>
        <time>2021-08-25T16:49:57Z</time>
      </trkpt>
      <trkpt lat="47.72197" lon="5.08401">
        <ele>471.21</ele>
        <time>2021-08-25T16:50:13Z</time>
      </trkpt>
      <trkpt lat="47.72197" lon="5.084">
        <ele>471.31</ele>
        <time>2021-08-25T16:50:14Z</time>
      </trkpt>
      <trkpt lat="47.72193" lon="5.084">
        <ele>470.97</ele>
        <time>2021-08-25T16:50:20Z</time>
      </trkpt>
      <trkpt lat="47.72186" lon="5.08401">
        <ele>472.52</ele>
        <time>2021-08-25T16:50:33Z</time>
      </trkpt>
      <trkpt lat="47.72185" lon="5.08401">
        <ele>472.47</ele>
        <time>2021-08-25T16:51:03Z</time>
      </trkpt>
      <trkpt lat="47.72185" lon="5.08402">
        <ele>472.61</ele>
        <time>2021-08-25T16:51:44Z</time>
      </trkpt>
      <trkpt lat="47.72185" lon="5.08402">
        <ele>472.66</ele>
        <time>2021-08-25T16:52:48Z</time>
      </trkpt>
      <trkpt lat="47.72184" lon="5.084">
        <ele>472.81</ele>
        <time>2021-08-25T16:53:16Z</time>
      </trkpt>
      <trkpt lat="47.72183" lon="5.08396">
        <ele>472.82</ele>
        <time>2021-08-25T16:53:30Z</time>
      </trkpt>
      <trkpt lat="47.72182" lon="5.08392">
        <ele>472.78</ele>
        <time>2021-08-25T16:53:33Z</time>
      </trkpt>
      <trkpt lat="47.72178" lon="5.08384">
        <ele>472.76</ele>
        <time>2021-08-25T16:53:38Z</time>
      </trkpt>
      <trkpt lat="47.72166" lon="5.08355">
        <ele>472.77</ele>
        <time>2021-08-25T16:53:57Z</time>
      </trkpt>
      <trkpt lat="47.72157" lon="5.08334">
        <ele>472.61</ele>
        <time>2021-08-25T16:54:13Z</time>
      </trkpt>
      <trkpt lat="47.72156" lon="5.08333">
        <ele>472.77</ele>
        <time>2021-08-25T16:54:15Z</time>
      </trkpt>
      <trkpt lat="47.72155" lon="5.08331">
        <ele>472.62</ele>
        <time>2021-08-25T16:54:17Z</time>
      </trkpt>
      <trkpt lat="47.72142" lon="5.08306">
        <ele>473.12</ele>
        <time>2021-08-25T16:54:35Z</time>
      </trkpt>
      <trkpt lat="47.72134" lon="5.08294">
        <ele>473.25</ele>
        <time>2021-08-25T16:54:46Z</time>
      </trkpt>
      <trkpt lat="47.72122" lon="5.08303">
        <ele>473.13</ele>
        <time>2021-08-25T16:55:02Z</time>
      </trkpt>
      <trkpt lat="47.72125" lon="5.08324">
        <ele>471.86</ele>
        <time>2021-08-25T16:55:18Z</time>
      </trkpt>
    </trkseg>
  </trk>
</gpx>